Whitehorse / Erik Nielsen International Airport

CYXY | YXY

Whitehorse , Yukon , Canada

Saturday, September 21st, 2019 | 04:35

Weather

CYXY 211100Z 16016KT 15SM SCT080 BKN140 OVC220 11/07 A2925 RMK AC3AC3CI2 SLP920 DENSITY ALT 3200FT

Charts

No Charts Available

Gates

55 Available

Runways

3 Available

Events

No events for this airport


New event